Nearby METAR Reports

 Weather conditions at key Metar weather stations is recorded hourly. Metar weather stations are the stations set up at regional or major airports and often considered the official stations of record for a local area.

KSEA - Seattle/Tacoma Airport
Updated: 05/25/2017 4:53am
Few Clouds
Few Clouds
 Wind from SE
Wind: SE 7 mph , 11 km/h
Temperature: 46°F , 8°C
Wind Chill: 42°F , 6°C
Dew Point: 45°F , 7°C
Humidity: 93%
Barometer: 29.92 inHg , 1013.2 hPa
Clouds: Few Clouds
Visibility: 10 miles , 16 km
Cloud details: Few Clouds 8000 ft
2017/05/25 11:53 KSEA 251153Z 13006KT 10SM FEW080 08/07 A2992 RMK AO2 SLP137 T00830067 10139 20083 51003
KTIW - Tacoma Narrows Bridge
Updated: 05/25/2017 4:53am
Clear
Clear
 Wind from calm
Wind: Calm
Temperature: 46°F , 8°C
Dew Point: 45°F , 7°C
Humidity: 93%
Barometer: 29.92 inHg , 1013.2 hPa
Clouds: Clear
Visibility: 10 miles , 16 km
2017/05/25 11:53 KTIW 251153Z AUTO 00000KT 10SM CLR 08/07 A2992 RMK AO2 SLP132 T00780072 10117 20078 50002
 
KBLI - Bellingham
Updated: 05/25/2017 4:53am
Mostly cloudy
Mostly cloudy
 Wind from calm
Wind: Calm
Temperature: 45°F , 7°C
Dew Point: 45°F , 7°C
Humidity: 100%
Barometer: 29.91 inHg , 1012.9 hPa
Clouds: Mostly cloudy
Visibility: 10 miles , 16 km
Cloud details: Mostly cloudy 11000 ft
2017/05/25 11:53 KBLI 251153Z AUTO 00000KT 10SM BKN110 07/07 A2991 RMK AO2 SLP135 70001 T00720067 10089 20061 56002
KUIL - Quillayute-La Push
Updated: 05/25/2017 4:53am
Clear
Clear
 Wind from calm
Wind: Calm
Temperature: 39°F , 4°C
Dew Point: 37°F , 3°C
Humidity: 93%
Barometer: 29.92 inHg , 1013.2 hPa
Clouds: Clear
Visibility: 10 miles , 16 km
2017/05/25 11:53 KUIL 251153Z AUTO 00000KT 10SM CLR 04/03 A2992 RMK AO2 SLP131 T00390033 10078 20033 56005
 
KYKM - Yakima
Updated: 05/25/2017 4:53am
Clear
Clear
 Wind from WSW
Wind: WSW 5 mph , 7 km/h
Temperature: 46°F , 8°C
Wind Chill: 44°F , 7°C
Dew Point: 36°F , 2°C
Humidity: 66%
Barometer: 29.82 inHg , 1009.8 hPa
Clouds: Clear
Visibility: 10 miles , 16 km
2017/05/25 11:53 KYKM 251153Z AUTO 25004KT 10SM CLR 08/02 A2982 RMK AO2 SLP097 T00780022 10144 20078 55001
KGEG - Spokane
Updated: 05/25/2017 4:53am
Mostly cloudy
Mostly cloudy
 Wind from SSE
Wind: SSE 6 mph , 9 km/h
Temperature: 46°F , 8°C
Wind Chill: 43°F , 6°C
Dew Point: 37°F , 3°C
Humidity: 71%
Barometer: 29.76 inHg , 1007.8 hPa
Clouds: Mostly cloudy
Visibility: 10 miles , 16 km
Cloud details: Mostly cloudy 11000 ft
Mostly cloudy 14000 ft
2017/05/25 11:53 KGEG 251153Z 16005KT 10SM BKN110 BKN140 08/03 A2976 RMK AO2 SLP075 T00830033 10100 20078 50002
 
KPDX - Portland
Updated: 05/25/2017 5:23am
Overcast
Overcast
 Wind from varies
Wind: varies 3 mph , 6 km/h
Temperature: 52°F , 11°C
Dew Point: 45°F , 7°C
Humidity: 77%
Barometer: 29.92 inHg , 1013.2 hPa
Clouds: Overcast
Visibility: 10 miles , 16 km
Cloud details: Mostly cloudy 2800 ft
Overcast 5000 ft
2017/05/25 12:23 KPDX 251223Z VRB03KT 10SM BKN028 OVC050 11/07 A2992 RMK AO2 T01060067